sensor_id;sensor_type;location;lat;lon;timestamp;pressure;altitude;pressure_sealevel;temperature;humidity
31171;BME280;17806;52.276;8.042;2022-07-06T00:02:03;52656.13;;;-145.37;54.04
31171;BME280;17806;52.276;8.042;2022-07-06T00:04:30;52652.09;;;-145.37;54.14
31171;BME280;17806;52.276;8.042;2022-07-06T00:06:55;52656.13;;;-145.37;54.07
31171;BME280;17806;52.276;8.042;2022-07-06T00:09:21;52670.22;;;-145.37;54.19
31171;BME280;17806;52.276;8.042;2022-07-06T00:11:46;52644.06;;;-145.37;54.07
31171;BME280;17806;52.276;8.042;2022-07-06T00:14:11;52640.03;;;-145.37;54.15
31171;BME280;17806;52.276;8.042;2022-07-06T00:16:37;52688.34;;;-145.37;54.13
31171;BME280;17806;52.276;8.042;2022-07-06T00:19:02;52640.03;;;-145.37;54.47
31171;BME280;17806;52.276;8.042;2022-07-06T00:21:28;52652.09;;;-145.37;54.63
31171;BME280;17806;52.276;8.042;2022-07-06T00:23:53;52666.19;;;-145.37;54.35
31171;BME280;17806;52.276;8.042;2022-07-06T00:26:19;52623.94;;;-145.37;54.79
31171;BME280;17806;52.276;8.042;2022-07-06T00:28:44;52648.06;;;-145.37;55.06
31171;BME280;17806;52.276;8.042;2022-07-06T00:31:10;52696.38;;;-145.37;55.13
31171;BME280;17806;52.276;8.042;2022-07-06T00:33:35;52668.19;;;-145.37;55.05
31171;BME280;17806;52.276;8.042;2022-07-06T00:36:01;52660.16;;;-145.37;55.30
31171;BME280;17806;52.276;8.042;2022-07-06T00:38:26;52664.19;;;-145.37;55.45
31171;BME280;17806;52.276;8.042;2022-07-06T00:40:52;52700.41;;;-145.37;55.39
31171;BME280;17806;52.276;8.042;2022-07-06T00:43:17;52652.09;;;-145.37;55.50
31171;BME280;17806;52.276;8.042;2022-07-06T00:45:42;52672.22;;;-145.37;55.70
31171;BME280;17806;52.276;8.042;2022-07-06T00:48:09;52674.25;;;-145.37;55.37
31171;BME280;17806;52.276;8.042;2022-07-06T00:50:34;52684.31;;;-145.37;55.43
31171;BME280;17806;52.276;8.042;2022-07-06T00:53:04;52690.34;;;-145.37;55.14
31171;BME280;17806;52.276;8.042;2022-07-06T00:55:41;52684.31;;;-145.37;55.60
31171;BME280;17806;52.276;8.042;2022-07-06T00:58:08;52688.34;;;-145.37;55.19
31171;BME280;17806;52.276;8.042;2022-07-06T01:00:34;52664.19;;;-145.37;55.67
31171;BME280;17806;52.276;8.042;2022-07-06T01:03:00;52692.34;;;-145.37;55.68
31171;BME280;17806;52.276;8.042;2022-07-06T01:05:26;52664.19;;;-145.37;55.90
31171;BME280;17806;52.276;8.042;2022-07-06T01:07:52;52656.13;;;-145.37;56.01
31171;BME280;17806;52.276;8.042;2022-07-06T01:10:20;52664.19;;;-145.37;56.05
31171;BME280;17806;52.276;8.042;2022-07-06T01:12:47;52680.28;;;-145.37;56.40
31171;BME280;17806;52.276;8.042;2022-07-06T01:15:18;52607.81;;;-145.37;56.77
31171;BME280;17806;52.276;8.042;2022-07-06T01:17:44;52696.38;;;-145.37;56.50
31171;BME280;17806;52.276;8.042;2022-07-06T01:20:23;52692.34;;;-145.37;56.48
31171;BME280;17806;52.276;8.042;2022-07-06T01:22:51;52668.19;;;-145.37;56.85
31171;BME280;17806;52.276;8.042;2022-07-06T01:25:18;52680.28;;;-145.37;56.94
31171;BME280;17806;52.276;8.042;2022-07-06T01:27:44;52676.25;;;-145.37;57.14
31171;BME280;17806;52.276;8.042;2022-07-06T01:30:12;52668.19;;;-145.37;57.00
31171;BME280;17806;52.276;8.042;2022-07-06T01:32:40;52664.19;;;-145.37;57.37
31171;BME280;17806;52.276;8.042;2022-07-06T01:35:07;52670.22;;;-145.37;57.61
31171;BME280;17806;52.276;8.042;2022-07-06T01:37:33;52678.25;;;-145.37;57.55
31171;BME280;17806;52.276;8.042;2022-07-06T01:40:04;52698.41;;;-145.37;57.80
31171;BME280;17806;52.276;8.042;2022-07-06T01:42:30;52688.34;;;-145.37;58.04
31171;BME280;17806;52.276;8.042;2022-07-06T01:44:55;52688.34;;;-145.37;58.43
31171;BME280;17806;52.276;8.042;2022-07-06T01:47:21;52674.25;;;-145.37;58.24
31171;BME280;17806;52.276;8.042;2022-07-06T01:49:46;52672.22;;;-145.37;58.48
31171;BME280;17806;52.276;8.042;2022-07-06T01:52:12;52680.28;;;-145.37;58.82
31171;BME280;17806;52.276;8.042;2022-07-06T01:54:38;52648.06;;;-145.37;58.77
31171;BME280;17806;52.276;8.042;2022-07-06T01:57:04;52676.25;;;-145.37;58.73
31171;BME280;17806;52.276;8.042;2022-07-06T01:59:29;52678.25;;;-145.37;58.79
31171;BME280;17806;52.276;8.042;2022-07-06T02:01:55;52692.34;;;-145.37;58.79
31171;BME280;17806;52.276;8.042;2022-07-06T02:04:20;52666.19;;;-145.37;59.04
31171;BME280;17806;52.276;8.042;2022-07-06T02:06:46;52668.19;;;-145.37;58.86
31171;BME280;17806;52.276;8.042;2022-07-06T02:09:11;52668.19;;;-145.37;59.21
31171;BME280;17806;52.276;8.042;2022-07-06T02:11:37;52660.16;;;-145.37;59.55
31171;BME280;17806;52.276;8.042;2022-07-06T02:14:02;52672.22;;;-145.37;59.50
31171;BME280;17806;52.276;8.042;2022-07-06T02:16:28;52684.31;;;-145.37;59.18
31171;BME280;17806;52.276;8.042;2022-07-06T02:18:53;52690.34;;;-145.37;59.45
31171;BME280;17806;52.276;8.042;2022-07-06T02:21:18;52650.09;;;-145.37;59.89
31171;BME280;17806;52.276;8.042;2022-07-06T02:23:44;52676.25;;;-145.37;59.79
31171;BME280;17806;52.276;8.042;2022-07-06T02:26:09;52684.31;;;-145.37;59.88
31171;BME280;17806;52.276;8.042;2022-07-06T02:28:35;52700.41;;;-145.37;59.93
31171;BME280;17806;52.276;8.042;2022-07-06T02:31:00;52662.16;;;-145.37;60.23
31171;BME280;17806;52.276;8.042;2022-07-06T02:33:26;52696.38;;;-145.37;60.06
31171;BME280;17806;52.276;8.042;2022-07-06T02:35:51;52660.16;;;-145.37;59.91
31171;BME280;17806;52.276;8.042;2022-07-06T02:38:16;52718.53;;;-145.37;60.19
31171;BME280;17806;52.276;8.042;2022-07-06T02:40:42;52708.47;;;-145.37;60.04
31171;BME280;17806;52.276;8.042;2022-07-06T02:43:07;52672.22;;;-145.37;60.15
31171;BME280;17806;52.276;8.042;2022-07-06T02:45:33;52668.19;;;-145.37;60.13
31171;BME280;17806;52.276;8.042;2022-07-06T02:47:58;52722.53;;;-145.37;60.49
31171;BME280;17806;52.276;8.042;2022-07-06T02:50:24;52712.47;;;-145.37;60.77
31171;BME280;17806;52.276;8.042;2022-07-06T02:52:50;52666.19;;;-145.37;61.12
31171;BME280;17806;52.276;8.042;2022-07-06T02:55:15;52700.41;;;-145.37;61.63
31171;BME280;17806;52.276;8.042;2022-07-06T02:57:41;52676.25;;;-145.37;61.87
31171;BME280;17806;52.276;8.042;2022-07-06T03:00:07;52684.31;;;-145.37;61.61
31171;BME280;17806;52.276;8.042;2022-07-06T03:02:33;52712.47;;;-145.37;61.84
31171;BME280;17806;52.276;8.042;2022-07-06T03:04:59;52700.41;;;-145.37;61.39
31171;BME280;17806;52.276;8.042;2022-07-06T03:07:24;52700.41;;;-145.37;61.88
31171;BME280;17806;52.276;8.042;2022-07-06T03:09:50;52664.19;;;-145.37;61.72
31171;BME280;17806;52.276;8.042;2022-07-06T03:12:15;52710.47;;;-145.37;62.01
31171;BME280;17806;52.276;8.042;2022-07-06T03:14:41;52676.25;;;-145.37;62.05
31171;BME280;17806;52.276;8.042;2022-07-06T03:17:07;52680.28;;;-145.37;62.01
31171;BME280;17806;52.276;8.042;2022-07-06T03:19:32;52740.66;;;-145.37;62.14
31171;BME280;17806;52.276;8.042;2022-07-06T03:21:57;52688.34;;;-145.37;62.12
31171;BME280;17806;52.276;8.042;2022-07-06T03:24:23;52712.47;;;-145.37;62.46
31171;BME280;17806;52.276;8.042;2022-07-06T03:26:48;52690.34;;;-145.37;62.36
31171;BME280;17806;52.276;8.042;2022-07-06T03:29:14;52700.41;;;-145.37;62.54
31171;BME280;17806;52.276;8.042;2022-07-06T03:31:39;52684.31;;;-145.37;62.78
31171;BME280;17806;52.276;8.042;2022-07-06T03:34:04;52680.28;;;-145.37;63.06
31171;BME280;17806;52.276;8.042;2022-07-06T03:36:31;52674.25;;;-145.37;63.11
31171;BME280;17806;52.276;8.042;2022-07-06T03:38:57;52664.19;;;-145.37;62.68
31171;BME280;17806;52.276;8.042;2022-07-06T03:41:22;52700.41;;;-145.37;62.71
31171;BME280;17806;52.276;8.042;2022-07-06T03:43:47;52688.34;;;-145.37;62.86
31171;BME280;17806;52.276;8.042;2022-07-06T03:46:13;52652.09;;;-145.37;63.01
31171;BME280;17806;52.276;8.042;2022-07-06T03:48:38;52690.34;;;-145.37;62.65
31171;BME280;17806;52.276;8.042;2022-07-06T03:51:04;52712.47;;;-145.37;62.42
31171;BME280;17806;52.276;8.042;2022-07-06T03:53:29;52724.56;;;-145.37;62.39
31171;BME280;17806;52.276;8.042;2022-07-06T03:55:54;52688.34;;;-145.37;62.37
31171;BME280;17806;52.276;8.042;2022-07-06T03:58:38;52712.47;;;-145.37;61.87
31171;BME280;17806;52.276;8.042;2022-07-06T04:01:04;52664.19;;;-145.37;61.73
31171;BME280;17806;52.276;8.042;2022-07-06T04:03:29;52682.28;;;-145.37;61.76
31171;BME280;17806;52.276;8.042;2022-07-06T04:05:55;52692.34;;;-145.37;61.65
31171;BME280;17806;52.276;8.042;2022-07-06T04:08:20;52688.34;;;-145.37;61.44
31171;BME280;17806;52.276;8.042;2022-07-06T04:10:46;52682.28;;;-145.37;61.42
31171;BME280;17806;52.276;8.042;2022-07-06T04:13:12;52706.44;;;-145.37;61.67
31171;BME280;17806;52.276;8.042;2022-07-06T04:15:38;52698.41;;;-145.37;61.02
31171;BME280;17806;52.276;8.042;2022-07-06T04:18:04;52700.41;;;-145.37;60.69
31171;BME280;17806;52.276;8.042;2022-07-06T04:20:30;52702.41;;;-145.37;60.56
31171;BME280;17806;52.276;8.042;2022-07-06T04:22:55;52704.44;;;-145.37;60.32
31171;BME280;17806;52.276;8.042;2022-07-06T04:25:21;52696.38;;;-145.37;60.62
31171;BME280;17806;52.276;8.042;2022-07-06T04:27:46;52708.47;;;-145.37;60.54
31171;BME280;17806;52.276;8.042;2022-07-06T04:30:12;52720.53;;;-145.37;60.15
31171;BME280;17806;52.276;8.042;2022-07-06T04:32:37;52710.47;;;-145.37;60.28
31171;BME280;17806;52.276;8.042;2022-07-06T04:35:04;52724.56;;;-145.37;59.68
31171;BME280;17806;52.276;8.042;2022-07-06T04:37:30;52704.44;;;-145.37;59.62
31171;BME280;17806;52.276;8.042;2022-07-06T04:39:56;52682.28;;;-145.37;60.01
31171;BME280;17806;52.276;8.042;2022-07-06T04:42:22;52682.28;;;-145.37;59.53
31171;BME280;17806;52.276;8.042;2022-07-06T04:44:47;52672.22;;;-145.37;59.70
31171;BME280;17806;52.276;8.042;2022-07-06T04:47:13;52694.38;;;-145.37;59.51
31171;BME280;17806;52.276;8.042;2022-07-06T04:49:39;52704.44;;;-145.37;59.47
31171;BME280;17806;52.276;8.042;2022-07-06T04:52:05;52716.50;;;-145.37;59.06
31171;BME280;17806;52.276;8.042;2022-07-06T04:54:30;52716.50;;;-145.37;59.30
31171;BME280;17806;52.276;8.042;2022-07-06T04:56:56;52712.47;;;-145.37;59.15
31171;BME280;17806;52.276;8.042;2022-07-06T04:59:22;52732.59;;;-145.37;59.49
31171;BME280;17806;52.276;8.042;2022-07-06T05:01:47;52704.44;;;-145.37;59.11
31171;BME280;17806;52.276;8.042;2022-07-06T05:04:12;52688.34;;;-145.37;59.21
31171;BME280;17806;52.276;8.042;2022-07-06T05:06:38;52718.53;;;-145.37;59.21
31171;BME280;17806;52.276;8.042;2022-07-06T05:09:04;52712.47;;;-145.37;59.12
31171;BME280;17806;52.276;8.042;2022-07-06T05:11:29;52756.75;;;-145.37;58.79
31171;BME280;17806;52.276;8.042;2022-07-06T05:13:55;52716.50;;;-145.37;58.62
31171;BME280;17806;52.276;8.042;2022-07-06T05:16:21;52706.44;;;-145.37;58.71
31171;BME280;17806;52.276;8.042;2022-07-06T05:18:48;52708.47;;;-145.37;58.47
31171;BME280;17806;52.276;8.042;2022-07-06T05:21:13;52688.34;;;-145.37;58.90
31171;BME280;17806;52.276;8.042;2022-07-06T05:23:39;52720.53;;;-145.37;58.57
31171;BME280;17806;52.276;8.042;2022-07-06T05:26:05;52738.66;;;-145.37;58.24
31171;BME280;17806;52.276;8.042;2022-07-06T05:28:30;52724.56;;;-145.37;58.37
31171;BME280;17806;52.276;8.042;2022-07-06T05:30:55;52692.34;;;-145.37;58.74
31171;BME280;17806;52.276;8.042;2022-07-06T05:33:21;52696.38;;;-145.37;58.68
31171;BME280;17806;52.276;8.042;2022-07-06T05:35:46;52688.34;;;-145.37;58.60
31171;BME280;17806;52.276;8.042;2022-07-06T05:38:12;52730.59;;;-145.37;58.21
31171;BME280;17806;52.276;8.042;2022-07-06T05:40:38;52684.31;;;-145.37;57.75
31171;BME280;17806;52.276;8.042;2022-07-06T05:43:03;52728.59;;;-145.37;57.50
31171;BME280;17806;52.276;8.042;2022-07-06T05:45:29;52718.53;;;-145.37;57.67
31171;BME280;17806;52.276;8.042;2022-07-06T05:47:54;52696.38;;;-145.37;57.98
31171;BME280;17806;52.276;8.042;2022-07-06T05:50:38;52692.34;;;-145.37;57.54
31171;BME280;17806;52.276;8.042;2022-07-06T05:53:05;52708.47;;;-145.37;57.24
31171;BME280;17806;52.276;8.042;2022-07-06T05:55:31;52732.59;;;-145.37;57.48
31171;BME280;17806;52.276;8.042;2022-07-06T05:57:56;52732.59;;;-145.37;57.54
31171;BME280;17806;52.276;8.042;2022-07-06T06:00:23;52710.47;;;-145.37;56.26
31171;BME280;17806;52.276;8.042;2022-07-06T06:02:48;52712.47;;;-145.37;56.00
31171;BME280;17806;52.276;8.042;2022-07-06T06:05:14;52718.53;;;-145.37;56.01
31171;BME280;17806;52.276;8.042;2022-07-06T06:07:40;52692.34;;;-145.37;56.00
31171;BME280;17806;52.276;8.042;2022-07-06T06:10:08;52704.44;;;-145.37;55.71
31171;BME280;17806;52.276;8.042;2022-07-06T06:12:34;52726.56;;;-145.37;55.86
31171;BME280;17806;52.276;8.042;2022-07-06T06:15:00;52700.41;;;-145.37;55.56
31171;BME280;17806;52.276;8.042;2022-07-06T06:17:26;52722.53;;;-145.37;55.33
31171;BME280;17806;52.276;8.042;2022-07-06T06:19:51;52738.66;;;-145.37;55.39
31171;BME280;17806;52.276;8.042;2022-07-06T06:22:17;52730.59;;;-145.37;55.20
31171;BME280;17806;52.276;8.042;2022-07-06T06:24:42;52694.38;;;-145.37;55.16
31171;BME280;17806;52.276;8.042;2022-07-06T06:27:08;52736.63;;;-145.37;55.65
31171;BME280;17806;52.276;8.042;2022-07-06T06:29:33;52742.66;;;-145.37;55.30
31171;BME280;17806;52.276;8.042;2022-07-06T06:31:59;52724.56;;;-145.37;54.71
31171;BME280;17806;52.276;8.042;2022-07-06T06:34:24;52772.84;;;-145.37;54.76
31171;BME280;17806;52.276;8.042;2022-07-06T06:36:50;52732.59;;;-145.37;54.10
31171;BME280;17806;52.276;8.042;2022-07-06T06:39:15;52730.59;;;-145.37;54.26
31171;BME280;17806;52.276;8.042;2022-07-06T06:41:41;52684.31;;;-145.37;53.94
31171;BME280;17806;52.276;8.042;2022-07-06T06:44:06;52712.47;;;-145.37;53.71
31171;BME280;17806;52.276;8.042;2022-07-06T06:46:32;52756.75;;;-145.37;53.86
31171;BME280;17806;52.276;8.042;2022-07-06T06:48:57;52718.53;;;-145.37;53.22
31171;BME280;17806;52.276;8.042;2022-07-06T06:51:23;52708.47;;;-145.37;53.12
31171;BME280;17806;52.276;8.042;2022-07-06T06:53:49;52752.72;;;-145.37;52.74
31171;BME280;17806;52.276;8.042;2022-07-06T06:56:15;52728.59;;;-145.37;53.07
31171;BME280;17806;52.276;8.042;2022-07-06T06:58:42;52736.63;;;-145.37;52.92
31171;BME280;17806;52.276;8.042;2022-07-06T07:01:08;52740.66;;;-145.37;52.51
31171;BME280;17806;52.276;8.042;2022-07-06T07:03:33;52720.53;;;-145.37;51.88
31171;BME280;17806;52.276;8.042;2022-07-06T07:05:58;52696.38;;;-145.37;52.09
31171;BME280;17806;52.276;8.042;2022-07-06T07:08:24;52702.41;;;-145.37;51.48
31171;BME280;17806;52.276;8.042;2022-07-06T07:10:49;52704.44;;;-145.37;51.50
31171;BME280;17806;52.276;8.042;2022-07-06T07:13:15;52714.50;;;-145.37;51.31
31171;BME280;17806;52.276;8.042;2022-07-06T07:15:40;52712.47;;;-145.37;51.21
31171;BME280;17806;52.276;8.042;2022-07-06T07:18:06;52688.34;;;-145.37;51.14
31171;BME280;17806;52.276;8.042;2022-07-06T07:20:32;52688.34;;;-145.37;51.11
31171;BME280;17806;52.276;8.042;2022-07-06T07:22:59;52670.22;;;-145.37;50.43
31171;BME280;17806;52.276;8.042;2022-07-06T07:25:24;52700.41;;;-145.37;48.79
31171;BME280;17806;52.276;8.042;2022-07-06T07:27:50;52704.44;;;-145.37;48.72
31171;BME280;17806;52.276;8.042;2022-07-06T07:30:15;52710.47;;;-145.37;48.16
31171;BME280;17806;52.276;8.042;2022-07-06T07:32:41;52712.47;;;-145.37;47.35
31171;BME280;17806;52.276;8.042;2022-07-06T07:35:07;52712.47;;;-145.37;46.66
31171;BME280;17806;52.276;8.042;2022-07-06T07:37:33;52728.59;;;-145.37;45.25
31171;BME280;17806;52.276;8.042;2022-07-06T07:39:58;52718.53;;;-145.37;44.55
31171;BME280;17806;52.276;8.042;2022-07-06T07:42:24;52706.44;;;-145.37;44.45
31171;BME280;17806;52.276;8.042;2022-07-06T07:44:50;52704.44;;;-145.37;43.17
31171;BME280;17806;52.276;8.042;2022-07-06T07:47:16;52702.41;;;-145.37;43.65
31171;BME280;17806;52.276;8.042;2022-07-06T07:49:42;52712.47;;;-145.37;44.10
31171;BME280;17806;52.276;8.042;2022-07-06T07:52:08;52712.47;;;-145.37;43.88
31171;BME280;17806;52.276;8.042;2022-07-06T07:54:36;52684.31;;;-145.37;44.44
31171;BME280;17806;52.276;8.042;2022-07-06T07:57:01;52722.53;;;-145.37;43.94
31171;BME280;17806;52.276;8.042;2022-07-06T07:59:27;52692.34;;;-145.37;42.57
31171;BME280;17806;52.276;8.042;2022-07-06T08:01:53;52690.34;;;-145.37;42.61
31171;BME280;17806;52.276;8.042;2022-07-06T08:04:19;52708.47;;;-145.37;41.47
31171;BME280;17806;52.276;8.042;2022-07-06T08:06:44;52692.34;;;-145.37;41.30
31171;BME280;17806;52.276;8.042;2022-07-06T08:09:10;52678.25;;;-145.37;40.48
31171;BME280;17806;52.276;8.042;2022-07-06T08:11:36;52724.56;;;-145.37;41.32
31171;BME280;17806;52.276;8.042;2022-07-06T08:14:02;52682.28;;;-145.37;43.04
31171;BME280;17806;52.276;8.042;2022-07-06T08:16:31;52704.44;;;-145.37;43.54
31171;BME280;17806;52.276;8.042;2022-07-06T08:18:57;52684.31;;;-145.37;42.86
31171;BME280;17806;52.276;8.042;2022-07-06T08:21:23;52728.59;;;-145.37;43.83
31171;BME280;17806;52.276;8.042;2022-07-06T08:23:49;52684.31;;;-145.37;44.13
31171;BME280;17806;52.276;8.042;2022-07-06T08:26:14;52676.25;;;-145.37;44.44
31171;BME280;17806;52.276;8.042;2022-07-06T08:28:40;52726.56;;;-145.37;44.16
31171;BME280;17806;52.276;8.042;2022-07-06T08:31:06;52686.31;;;-145.37;44.82
31171;BME280;17806;52.276;8.042;2022-07-06T08:33:32;52708.47;;;-145.37;46.43
31171;BME280;17806;52.276;8.042;2022-07-06T08:35:57;52688.34;;;-145.37;47.21
31171;BME280;17806;52.276;8.042;2022-07-06T08:38:23;52702.41;;;-145.37;47.14
31171;BME280;17806;52.276;8.042;2022-07-06T08:40:51;52700.41;;;-145.37;47.14
31171;BME280;17806;52.276;8.042;2022-07-06T08:43:17;52702.41;;;-145.37;47.27
31171;BME280;17806;52.276;8.042;2022-07-06T08:45:45;52702.41;;;-145.37;47.70
31171;BME280;17806;52.276;8.042;2022-07-06T08:48:11;52716.50;;;-145.37;47.40
31171;BME280;17806;52.276;8.042;2022-07-06T08:50:37;52698.41;;;-145.37;47.38
31171;BME280;17806;52.276;8.042;2022-07-06T08:53:03;52700.41;;;-145.37;46.87
31171;BME280;17806;52.276;8.042;2022-07-06T08:55:29;52706.44;;;-145.37;47.31
31171;BME280;17806;52.276;8.042;2022-07-06T08:57:56;52684.31;;;-145.37;47.61
31171;BME280;17806;52.276;8.042;2022-07-06T09:00:22;52704.44;;;-145.37;47.31
31171;BME280;17806;52.276;8.042;2022-07-06T09:02:49;52748.72;;;-145.37;46.58
31171;BME280;17806;52.276;8.042;2022-07-06T09:05:17;52720.53;;;-145.37;46.91
31171;BME280;17806;52.276;8.042;2022-07-06T09:07:45;52726.56;;;-145.37;46.79
31171;BME280;17806;52.276;8.042;2022-07-06T09:10:11;52706.44;;;-145.37;46.03
31171;BME280;17806;52.276;8.042;2022-07-06T09:12:40;52690.34;;;-145.37;45.57
31171;BME280;17806;52.276;8.042;2022-07-06T09:15:06;52712.47;;;-145.37;45.60
31171;BME280;17806;52.276;8.042;2022-07-06T09:17:31;52706.44;;;-145.37;45.07
31171;BME280;17806;52.276;8.042;2022-07-06T09:19:57;52712.47;;;-145.37;43.89
31171;BME280;17806;52.276;8.042;2022-07-06T09:22:31;52724.56;;;-145.37;42.81
31171;BME280;17806;52.276;8.042;2022-07-06T09:25:14;52726.56;;;-145.37;42.68
31171;BME280;17806;52.276;8.042;2022-07-06T09:27:44;52660.16;;;-145.37;40.92
31171;BME280;17806;52.276;8.042;2022-07-06T09:30:16;52700.41;;;-145.37;39.59
31171;BME280;17806;52.276;8.042;2022-07-06T09:32:47;52724.56;;;-145.37;38.74
31171;BME280;17806;52.276;8.042;2022-07-06T09:35:36;52696.38;;;-145.37;38.28
31171;BME280;17806;52.276;8.042;2022-07-06T09:38:13;52714.50;;;-145.37;37.53
31171;BME280;17806;52.276;8.042;2022-07-06T09:40:46;52692.34;;;-145.37;35.64
31171;BME280;17806;52.276;8.042;2022-07-06T09:43:15;52688.34;;;-145.37;34.24
31171;BME280;17806;52.276;8.042;2022-07-06T09:45:43;52678.25;;;-145.37;35.38
31171;BME280;17806;52.276;8.042;2022-07-06T09:50:47;52664.19;;;-145.37;35.80
31171;BME280;17806;52.276;8.042;2022-07-06T09:53:17;52712.47;;;-145.37;35.83
31171;BME280;17806;52.276;8.042;2022-07-06T09:55:44;52676.25;;;-145.37;35.71
31171;BME280;17806;52.276;8.042;2022-07-06T09:58:11;52692.34;;;-145.37;35.61
31171;BME280;17806;52.276;8.042;2022-07-06T10:00:40;52666.19;;;-145.37;36.09
31171;BME280;17806;52.276;8.042;2022-07-06T10:03:10;52676.25;;;-145.37;35.64
31171;BME280;17806;52.276;8.042;2022-07-06T10:05:48;52692.34;;;-145.37;34.12
31171;BME280;17806;52.276;8.042;2022-07-06T10:08:17;52662.16;;;-145.37;34.71
31171;BME280;17806;52.276;8.042;2022-07-06T10:10:43;52688.34;;;-145.37;34.45
31171;BME280;17806;52.276;8.042;2022-07-06T10:13:10;52682.28;;;-145.37;33.42
31171;BME280;17806;52.276;8.042;2022-07-06T10:15:38;52680.28;;;-145.37;32.71
31171;BME280;17806;52.276;8.042;2022-07-06T10:18:05;52664.19;;;-145.37;33.68
31171;BME280;17806;52.276;8.042;2022-07-06T10:20:34;52650.09;;;-145.37;34.64
31171;BME280;17806;52.276;8.042;2022-07-06T10:23:04;52680.28;;;-145.37;35.18
31171;BME280;17806;52.276;8.042;2022-07-06T10:25:31;52680.28;;;-145.37;35.35
31171;BME280;17806;52.276;8.042;2022-07-06T10:27:58;52676.25;;;-145.37;35.25
31171;BME280;17806;52.276;8.042;2022-07-06T10:30:25;52700.41;;;-145.37;34.35
31171;BME280;17806;52.276;8.042;2022-07-06T10:32:52;52658.13;;;-145.37;33.21
31171;BME280;17806;52.276;8.042;2022-07-06T10:35:20;52680.28;;;-145.37;33.00
31171;BME280;17806;52.276;8.042;2022-07-06T10:38:11;52716.50;;;-145.37;34.62
31171;BME280;17806;52.276;8.042;2022-07-06T10:41:02;52625.94;;;-145.37;34.03
31171;BME280;17806;52.276;8.042;2022-07-06T10:43:42;52716.50;;;-145.37;33.87
31171;BME280;17806;52.276;8.042;2022-07-06T10:46:15;52682.28;;;-145.37;33.94
31171;BME280;17806;52.276;8.042;2022-07-06T10:48:47;52692.34;;;-145.37;33.12
31171;BME280;17806;52.276;8.042;2022-07-06T10:51:28;52662.16;;;-145.37;33.30
31171;BME280;17806;52.276;8.042;2022-07-06T10:54:00;52692.34;;;-145.37;32.75
31171;BME280;17806;52.276;8.042;2022-07-06T10:56:36;52688.34;;;-145.37;33.31
31171;BME280;17806;52.276;8.042;2022-07-06T10:59:11;52680.28;;;-145.37;32.24
31171;BME280;17806;52.276;8.042;2022-07-06T11:01:38;52623.94;;;-145.37;31.98
31171;BME280;17806;52.276;8.042;2022-07-06T11:04:04;52648.06;;;-145.37;30.62
31171;BME280;17806;52.276;8.042;2022-07-06T11:06:38;52650.09;;;-145.37;30.39
31171;BME280;17806;52.276;8.042;2022-07-06T11:09:09;52648.06;;;-145.37;31.01
31171;BME280;17806;52.276;8.042;2022-07-06T11:14:15;52638.00;;;-145.37;31.69
31171;BME280;17806;52.276;8.042;2022-07-06T11:19:17;52652.09;;;-145.37;29.53
31171;BME280;17806;52.276;8.042;2022-07-06T11:24:11;52656.13;;;-145.37;32.59
31171;BME280;17806;52.276;8.042;2022-07-06T11:26:37;52644.06;;;-145.37;32.99
31171;BME280;17806;52.276;8.042;2022-07-06T11:29:04;52672.22;;;-145.37;33.75
31171;BME280;17806;52.276;8.042;2022-07-06T11:31:42;52704.44;;;-145.37;33.95
31171;BME280;17806;52.276;8.042;2022-07-06T11:34:09;52716.50;;;-145.37;34.18
31171;BME280;17806;52.276;8.042;2022-07-06T11:36:36;52704.44;;;-145.37;34.60
31171;BME280;17806;52.276;8.042;2022-07-06T11:39:06;52732.59;;;-145.37;34.51
31171;BME280;17806;52.276;8.042;2022-07-06T11:41:32;52678.25;;;-145.37;35.46
31171;BME280;17806;52.276;8.042;2022-07-06T11:43:59;52682.28;;;-145.37;35.08
31171;BME280;17806;52.276;8.042;2022-07-06T11:46:30;52644.06;;;-145.37;35.27
31171;BME280;17806;52.276;8.042;2022-07-06T11:48:59;52712.47;;;-145.37;35.24
31171;BME280;17806;52.276;8.042;2022-07-06T11:51:27;52672.22;;;-145.37;34.62
31171;BME280;17806;52.276;8.042;2022-07-06T11:53:56;52674.25;;;-145.37;33.29
31171;BME280;17806;52.276;8.042;2022-07-06T11:56:22;52644.06;;;-145.37;30.40
31171;BME280;17806;52.276;8.042;2022-07-06T11:58:51;52607.81;;;-145.37;29.23
31171;BME280;17806;52.276;8.042;2022-07-06T12:01:25;52591.72;;;-145.37;27.13
31171;BME280;17806;52.276;8.042;2022-07-06T12:03:53;52599.78;;;-145.37;27.67
31171;BME280;17806;52.276;8.042;2022-07-06T12:06:23;52627.94;;;-145.37;28.18
31171;BME280;17806;52.276;8.042;2022-07-06T12:11:33;52605.81;;;-145.37;29.31
31171;BME280;17806;52.276;8.042;2022-07-06T12:14:01;52656.13;;;-145.37;30.29
31171;BME280;17806;52.276;8.042;2022-07-06T12:16:32;52684.31;;;-145.37;31.02
31171;BME280;17806;52.276;8.042;2022-07-06T12:18:59;52660.16;;;-145.37;32.41
31171;BME280;17806;52.276;8.042;2022-07-06T12:21:25;52646.06;;;-145.37;32.45
31171;BME280;17806;52.276;8.042;2022-07-06T12:23:53;52696.38;;;-145.37;32.16
31171;BME280;17806;52.276;8.042;2022-07-06T12:26:20;52631.97;;;-145.37;32.05
31171;BME280;17806;52.276;8.042;2022-07-06T12:29:12;52589.72;;;-145.37;27.96
31171;BME280;17806;52.276;8.042;2022-07-06T12:31:43;52559.53;;;-145.37;26.25
31171;BME280;17806;52.276;8.042;2022-07-06T12:34:25;52603.81;;;-145.37;25.83
31171;BME280;17806;52.276;8.042;2022-07-06T12:36:53;52642.03;;;-145.37;28.17
31171;BME280;17806;52.276;8.042;2022-07-06T12:39:21;52656.13;;;-145.37;29.46
31171;BME280;17806;52.276;8.042;2022-07-06T12:41:55;52648.06;;;-145.37;30.71
31171;BME280;17806;52.276;8.042;2022-07-06T12:44:25;52644.06;;;-145.37;31.28
31171;BME280;17806;52.276;8.042;2022-07-06T12:47:10;52636.00;;;-145.37;31.32
31171;BME280;17806;52.276;8.042;2022-07-06T12:49:39;52579.66;;;-145.37;27.99
31171;BME280;17806;52.276;8.042;2022-07-06T12:52:13;52587.69;;;-145.37;25.95
31171;BME280;17806;52.276;8.042;2022-07-06T12:54:50;52623.94;;;-145.37;27.46